Reeders, Pennsylvania
Current Conditions -  °F | °C
As of 7:53 PM on Thursday 18 Dec 2014 (Local Time) from KMPO Reporting Station
Overcast Overcast  
Wind Chill: 19°   Ceiling: 1400
Heat Index: 30°   Visibility: 10mi
Dew Point: 24°   Wind: 15mph
Humidity: 79%   Direction: 310°NW
Pressure: 29.91"   Gusts: 26mph
Location:  41.02°N, 75.34°W
Report Text: KMPO 190053Z AUTO 31013G23KT 10SM OVC014 M01/M04 A2991 RMK AO2 PK WND 33026/0025 SLP149 T10111044
Loading
Personal Weather Stations






























Interactive Weather Map New forecast layout! Learn more

10-Day Weather Forecast

Advertisements
Track Severe Weather on mobile